sensor_id;sensor_type;location;lat;lon;timestamp;pressure;altitude;pressure_sealevel;temperature;humidity
7834;BME280;3962;42.696;23.354;2023-07-20T00:01:16;94894.69;;;23.90;61.23
7834;BME280;3962;42.696;23.354;2023-07-20T00:03:43;94882.41;;;23.99;60.52
7834;BME280;3962;42.696;23.354;2023-07-20T00:06:10;94874.13;;;24.05;60.57
7834;BME280;3962;42.696;23.354;2023-07-20T00:08:38;94875.91;;;24.11;60.75
7834;BME280;3962;42.696;23.354;2023-07-20T00:11:05;94875.19;;;24.16;60.42
7834;BME280;3962;42.696;23.354;2023-07-20T00:13:32;94876.72;;;24.12;60.54
7834;BME280;3962;42.696;23.354;2023-07-20T00:15:58;94879.44;;;24.00;61.02
7834;BME280;3962;42.696;23.354;2023-07-20T00:18:25;94881.97;;;23.90;61.72
7834;BME280;3962;42.696;23.354;2023-07-20T00:20:52;94886.66;;;23.49;64.44
7834;BME280;3962;42.696;23.354;2023-07-20T00:23:19;94892.03;;;23.14;65.99
7834;BME280;3962;42.696;23.354;2023-07-20T00:25:48;94886.34;;;23.04;67.20
7834;BME280;3962;42.696;23.354;2023-07-20T00:28:15;94897.88;;;23.00;67.82
7834;BME280;3962;42.696;23.354;2023-07-20T00:30:42;94905.50;;;22.92;68.48
7834;BME280;3962;42.696;23.354;2023-07-20T00:33:10;94897.44;;;22.74;69.60
7834;BME280;3962;42.696;23.354;2023-07-20T00:35:38;94899.97;;;22.57;70.99
7834;BME280;3962;42.696;23.354;2023-07-20T00:38:05;94902.19;;;22.31;72.55
7834;BME280;3962;42.696;23.354;2023-07-20T00:40:35;94899.41;;;22.19;73.47
7834;BME280;3962;42.696;23.354;2023-07-20T00:43:03;94885.69;;;22.14;73.73
7834;BME280;3962;42.696;23.354;2023-07-20T00:45:31;94886.38;;;22.10;74.35
7834;BME280;3962;42.696;23.354;2023-07-20T00:47:59;94888.25;;;22.09;74.60
7834;BME280;3962;42.696;23.354;2023-07-20T00:50:28;94884.56;;;22.04;74.86
7834;BME280;3962;42.696;23.354;2023-07-20T00:52:55;94884.34;;;22.05;75.34
7834;BME280;3962;42.696;23.354;2023-07-20T00:55:24;94867.88;;;22.07;75.37
7834;BME280;3962;42.696;23.354;2023-07-20T00:57:51;94873.66;;;22.10;75.41
7834;BME280;3962;42.696;23.354;2023-07-20T01:00:20;94870.28;;;22.15;75.19
7834;BME280;3962;42.696;23.354;2023-07-20T01:02:47;94872.75;;;22.16;75.07
7834;BME280;3962;42.696;23.354;2023-07-20T01:05:14;94861.16;;;22.09;75.25
7834;BME280;3962;42.696;23.354;2023-07-20T01:07:46;94871.41;;;22.07;75.20
7834;BME280;3962;42.696;23.354;2023-07-20T01:10:20;94872.16;;;21.96;75.20
7834;BME280;3962;42.696;23.354;2023-07-20T01:12:52;94878.78;;;22.00;75.03
7834;BME280;3962;42.696;23.354;2023-07-20T01:15:21;94883.38;;;22.00;74.56
7834;BME280;3962;42.696;23.354;2023-07-20T01:17:47;94886.69;;;22.02;74.54
7834;BME280;3962;42.696;23.354;2023-07-20T01:20:15;94884.78;;;22.02;74.70
7834;BME280;3962;42.696;23.354;2023-07-20T01:23:22;94876.66;;;22.02;74.59
7834;BME280;3962;42.696;23.354;2023-07-20T01:26:21;94874.41;;;21.99;74.64
7834;BME280;3962;42.696;23.354;2023-07-20T01:29:22;94865.00;;;22.02;74.22
7834;BME280;3962;42.696;23.354;2023-07-20T01:31:53;94875.25;;;22.00;73.68
7834;BME280;3962;42.696;23.354;2023-07-20T01:34:22;94880.31;;;21.96;73.89
7834;BME280;3962;42.696;23.354;2023-07-20T01:36:50;94883.38;;;22.00;73.83
7834;BME280;3962;42.696;23.354;2023-07-20T01:39:19;94884.56;;;22.04;73.79
7834;BME280;3962;42.696;23.354;2023-07-20T01:41:47;94885.41;;;22.04;73.50
7834;BME280;3962;42.696;23.354;2023-07-20T01:44:14;94877.50;;;22.03;73.53
7834;BME280;3962;42.696;23.354;2023-07-20T01:46:41;94878.19;;;21.98;73.59
7834;BME280;3962;42.696;23.354;2023-07-20T01:49:10;94875.47;;;21.98;73.74
7834;BME280;3962;42.696;23.354;2023-07-20T01:51:37;94871.13;;;21.97;74.29
7834;BME280;3962;42.696;23.354;2023-07-20T01:54:04;94876.28;;;21.99;74.39
7834;BME280;3962;42.696;23.354;2023-07-20T01:56:31;94882.75;;;21.98;74.05
7834;BME280;3962;42.696;23.354;2023-07-20T01:58:57;94880.50;;;21.95;74.34
7834;BME280;3962;42.696;23.354;2023-07-20T02:01:24;94873.44;;;21.94;74.70
7834;BME280;3962;42.696;23.354;2023-07-20T02:03:54;94872.84;;;21.92;74.95
7834;BME280;3962;42.696;23.354;2023-07-20T02:06:22;94862.59;;;21.94;75.11
7834;BME280;3962;42.696;23.354;2023-07-20T02:08:49;94866.28;;;21.99;75.06
7834;BME280;3962;42.696;23.354;2023-07-20T02:11:16;94860.03;;;21.99;74.58
7834;BME280;3962;42.696;23.354;2023-07-20T02:13:43;94863.50;;;22.06;74.18
7834;BME280;3962;42.696;23.354;2023-07-20T02:16:10;94862.47;;;22.07;74.23
7834;BME280;3962;42.696;23.354;2023-07-20T02:18:37;94860.19;;;22.04;74.24
7834;BME280;3962;42.696;23.354;2023-07-20T02:21:04;94862.09;;;22.03;73.87
7834;BME280;3962;42.696;23.354;2023-07-20T02:23:32;94869.97;;;22.05;74.63
7834;BME280;3962;42.696;23.354;2023-07-20T02:25:59;94863.56;;;21.99;74.59
7834;BME280;3962;42.696;23.354;2023-07-20T02:28:26;94864.72;;;21.92;75.35
7834;BME280;3962;42.696;23.354;2023-07-20T02:30:52;94862.44;;;21.89;74.88
7834;BME280;3962;42.696;23.354;2023-07-20T02:33:19;94866.97;;;21.95;74.53
7834;BME280;3962;42.696;23.354;2023-07-20T02:35:47;94854.69;;;21.92;74.96
7834;BME280;3962;42.696;23.354;2023-07-20T02:38:14;94850.81;;;21.88;74.65
7834;BME280;3962;42.696;23.354;2023-07-20T02:40:42;94852.59;;;21.94;74.39
7834;BME280;3962;42.696;23.354;2023-07-20T02:43:08;94849.06;;;21.94;74.32
7834;BME280;3962;42.696;23.354;2023-07-20T02:45:40;94841.53;;;21.96;74.27
7834;BME280;3962;42.696;23.354;2023-07-20T02:48:07;94834.63;;;22.00;74.09
7834;BME280;3962;42.696;23.354;2023-07-20T02:50:34;94838.28;;;22.05;73.83
7834;BME280;3962;42.696;23.354;2023-07-20T02:53:01;94829.09;;;22.06;73.61
7834;BME280;3962;42.696;23.354;2023-07-20T02:55:28;94820.81;;;22.01;73.98
7834;BME280;3962;42.696;23.354;2023-07-20T02:57:56;94836.50;;;21.99;74.01
7834;BME280;3962;42.696;23.354;2023-07-20T03:00:22;94842.28;;;22.03;73.80
7834;BME280;3962;42.696;23.354;2023-07-20T03:02:50;94842.00;;;21.93;74.08
7834;BME280;3962;42.696;23.354;2023-07-20T03:05:21;94840.34;;;21.92;74.26
7834;BME280;3962;42.696;23.354;2023-07-20T03:07:48;94840.47;;;21.97;73.28
7834;BME280;3962;42.696;23.354;2023-07-20T03:10:15;94846.22;;;22.07;72.76
7834;BME280;3962;42.696;23.354;2023-07-20T03:12:42;94849.13;;;22.05;72.43
7834;BME280;3962;42.696;23.354;2023-07-20T03:15:11;94849.13;;;22.05;72.52
7834;BME280;3962;42.696;23.354;2023-07-20T03:17:38;94850.50;;;21.96;72.74
7834;BME280;3962;42.696;23.354;2023-07-20T03:20:05;94856.97;;;21.77;73.91
7834;BME280;3962;42.696;23.354;2023-07-20T03:22:34;94857.91;;;21.65;74.23
7834;BME280;3962;42.696;23.354;2023-07-20T03:25:01;94858.88;;;21.52;74.53
7834;BME280;3962;42.696;23.354;2023-07-20T03:27:28;94857.28;;;21.45;74.67
7834;BME280;3962;42.696;23.354;2023-07-20T03:29:55;94856.66;;;21.43;74.62
7834;BME280;3962;42.696;23.354;2023-07-20T03:32:24;94851.72;;;21.40;74.92
7834;BME280;3962;42.696;23.354;2023-07-20T03:34:50;94853.66;;;21.33;75.20
7834;BME280;3962;42.696;23.354;2023-07-20T03:37:17;94852.22;;;21.30;75.63
7834;BME280;3962;42.696;23.354;2023-07-20T03:39:44;94855.09;;;21.35;75.83
7834;BME280;3962;42.696;23.354;2023-07-20T03:42:11;94861.09;;;21.37;75.58
7834;BME280;3962;42.696;23.354;2023-07-20T03:44:37;94866.72;;;21.36;75.94
7834;BME280;3962;42.696;23.354;2023-07-20T03:47:05;94863.41;;;21.34;76.42
7834;BME280;3962;42.696;23.354;2023-07-20T03:49:33;94855.38;;;21.27;76.79
7834;BME280;3962;42.696;23.354;2023-07-20T03:52:00;94865.44;;;21.20;77.38
7834;BME280;3962;42.696;23.354;2023-07-20T03:54:28;94858.38;;;21.19;77.75
7834;BME280;3962;42.696;23.354;2023-07-20T03:56:55;94861.28;;;21.18;78.09
7834;BME280;3962;42.696;23.354;2023-07-20T03:59:22;94866.47;;;21.19;78.27
7834;BME280;3962;42.696;23.354;2023-07-20T04:01:49;94862.44;;;21.28;78.00
7834;BME280;3962;42.696;23.354;2023-07-20T04:04:16;94863.59;;;21.39;77.68
7834;BME280;3962;42.696;23.354;2023-07-20T04:06:44;94869.59;;;21.41;77.24
7834;BME280;3962;42.696;23.354;2023-07-20T04:09:12;94863.81;;;21.37;77.50
7834;BME280;3962;42.696;23.354;2023-07-20T04:11:39;94865.72;;;21.55;77.23
7834;BME280;3962;42.696;23.354;2023-07-20T04:14:06;94871.50;;;21.58;76.69
7834;BME280;3962;42.696;23.354;2023-07-20T04:16:32;94868.81;;;21.58;76.61
7834;BME280;3962;42.696;23.354;2023-07-20T04:18:59;94855.06;;;21.60;76.70
7834;BME280;3962;42.696;23.354;2023-07-20T04:21:27;94855.28;;;21.58;76.79
7834;BME280;3962;42.696;23.354;2023-07-20T04:23:55;94849.69;;;21.53;76.89
7834;BME280;3962;42.696;23.354;2023-07-20T04:26:22;94853.66;;;21.51;77.19
7834;BME280;3962;42.696;23.354;2023-07-20T04:28:48;94851.03;;;21.44;77.27
7834;BME280;3962;42.696;23.354;2023-07-20T04:31:16;94849.88;;;21.34;77.92
7834;BME280;3962;42.696;23.354;2023-07-20T04:33:43;94849.97;;;21.27;76.68
7834;BME280;3962;42.696;23.354;2023-07-20T04:36:09;94854.16;;;21.23;77.34
7834;BME280;3962;42.696;23.354;2023-07-20T04:38:36;94843.72;;;21.27;77.54
7834;BME280;3962;42.696;23.354;2023-07-20T04:41:05;94840.72;;;21.35;77.15
7834;BME280;3962;42.696;23.354;2023-07-20T04:43:31;94834.97;;;21.49;76.46
7834;BME280;3962;42.696;23.354;2023-07-20T04:45:58;94837.50;;;21.62;76.06
7834;BME280;3962;42.696;23.354;2023-07-20T04:48:25;94843.72;;;21.69;75.56
7834;BME280;3962;42.696;23.354;2023-07-20T04:50:51;94840.94;;;21.76;75.44
7834;BME280;3962;42.696;23.354;2023-07-20T04:53:21;94847.25;;;21.88;74.85
7834;BME280;3962;42.696;23.354;2023-07-20T04:55:49;94846.13;;;21.95;73.96
7834;BME280;3962;42.696;23.354;2023-07-20T04:58:21;94835.38;;;22.07;74.19
7834;BME280;3962;42.696;23.354;2023-07-20T05:00:49;94831.66;;;22.19;73.51
7834;BME280;3962;42.696;23.354;2023-07-20T05:03:16;94836.28;;;22.30;73.39
7834;BME280;3962;42.696;23.354;2023-07-20T05:05:43;94841.94;;;22.47;72.87
7834;BME280;3962;42.696;23.354;2023-07-20T05:08:10;94838.91;;;22.55;72.63
7834;BME280;3962;42.696;23.354;2023-07-20T05:10:36;94846.09;;;22.61;72.32
7834;BME280;3962;42.696;23.354;2023-07-20T05:13:03;94838.59;;;22.74;71.91
7834;BME280;3962;42.696;23.354;2023-07-20T05:15:32;94848.28;;;22.82;71.26
7834;BME280;3962;42.696;23.354;2023-07-20T05:18:00;94858.28;;;22.81;71.24
7834;BME280;3962;42.696;23.354;2023-07-20T05:20:26;94852.22;;;22.86;71.12
7834;BME280;3962;42.696;23.354;2023-07-20T05:22:54;94846.78;;;22.86;70.69
7834;BME280;3962;42.696;23.354;2023-07-20T05:25:21;94848.78;;;22.90;70.40
7834;BME280;3962;42.696;23.354;2023-07-20T05:27:48;94849.97;;;22.94;70.32
7834;BME280;3962;42.696;23.354;2023-07-20T05:30:16;94854.91;;;22.97;70.23
7834;BME280;3962;42.696;23.354;2023-07-20T05:32:44;94852.88;;;23.22;69.82
7834;BME280;3962;42.696;23.354;2023-07-20T05:35:13;94853.72;;;23.34;68.94
7834;BME280;3962;42.696;23.354;2023-07-20T05:37:41;94855.84;;;23.43;68.65
7834;BME280;3962;42.696;23.354;2023-07-20T05:40:08;94850.19;;;23.33;68.28
7834;BME280;3962;42.696;23.354;2023-07-20T05:42:37;94847.94;;;23.42;67.35
7834;BME280;3962;42.696;23.354;2023-07-20T05:45:05;94870.38;;;23.60;67.24
7834;BME280;3962;42.696;23.354;2023-07-20T05:47:32;94873.78;;;23.79;67.06
7834;BME280;3962;42.696;23.354;2023-07-20T05:50:00;94877.44;;;23.96;66.12
7834;BME280;3962;42.696;23.354;2023-07-20T05:52:29;94868.81;;;23.99;65.82
7834;BME280;3962;42.696;23.354;2023-07-20T05:54:55;94868.72;;;23.94;66.67
7834;BME280;3962;42.696;23.354;2023-07-20T05:57:22;94873.44;;;23.87;66.92
7834;BME280;3962;42.696;23.354;2023-07-20T05:59:49;94874.72;;;23.84;66.46
7834;BME280;3962;42.696;23.354;2023-07-20T06:02:16;94861.97;;;24.08;64.07
7834;BME280;3962;42.696;23.354;2023-07-20T06:04:43;94864.63;;;24.31;64.61
7834;BME280;3962;42.696;23.354;2023-07-20T06:07:11;94864.03;;;24.68;63.64
7834;BME280;3962;42.696;23.354;2023-07-20T06:09:38;94861.09;;;24.86;63.93
7834;BME280;3962;42.696;23.354;2023-07-20T06:12:06;94869.88;;;25.05;63.10
7834;BME280;3962;42.696;23.354;2023-07-20T06:14:33;94865.19;;;25.00;63.39
7834;BME280;3962;42.696;23.354;2023-07-20T06:16:59;94858.72;;;24.90;63.72
7834;BME280;3962;42.696;23.354;2023-07-20T06:19:26;94856.97;;;24.84;63.88
7834;BME280;3962;42.696;23.354;2023-07-20T06:21:53;94851.22;;;24.97;63.46
7834;BME280;3962;42.696;23.354;2023-07-20T06:24:21;94845.47;;;25.10;61.83
7834;BME280;3962;42.696;23.354;2023-07-20T06:26:48;94837.72;;;25.18;62.25
7834;BME280;3962;42.696;23.354;2023-07-20T06:29:15;94836.84;;;25.29;60.50
7834;BME280;3962;42.696;23.354;2023-07-20T06:31:42;94839.41;;;25.36;62.18
7834;BME280;3962;42.696;23.354;2023-07-20T06:34:09;94846.06;;;25.12;62.84
7834;BME280;3962;42.696;23.354;2023-07-20T06:36:35;94844.53;;;25.04;63.28
7834;BME280;3962;42.696;23.354;2023-07-20T06:39:02;94845.09;;;25.34;62.98
7834;BME280;3962;42.696;23.354;2023-07-20T06:41:31;94841.38;;;25.24;63.36
7834;BME280;3962;42.696;23.354;2023-07-20T06:43:57;94839.78;;;25.44;62.50
7834;BME280;3962;42.696;23.354;2023-07-20T06:46:25;94844.81;;;25.85;61.25
7834;BME280;3962;42.696;23.354;2023-07-20T06:48:52;94847.91;;;26.10;60.83
7834;BME280;3962;42.696;23.354;2023-07-20T06:51:19;94849.94;;;26.41;59.75
7834;BME280;3962;42.696;23.354;2023-07-20T06:53:46;94847.13;;;26.58;59.24
7834;BME280;3962;42.696;23.354;2023-07-20T06:56:12;94849.31;;;26.56;58.40
7834;BME280;3962;42.696;23.354;2023-07-20T06:58:41;94847.94;;;26.80;57.74
7834;BME280;3962;42.696;23.354;2023-07-20T07:01:08;94855.81;;;26.76;57.15
7834;BME280;3962;42.696;23.354;2023-07-20T07:03:34;94875.03;;;26.86;57.24
7834;BME280;3962;42.696;23.354;2023-07-20T07:06:02;94881.84;;;27.37;55.58
7834;BME280;3962;42.696;23.354;2023-07-20T07:08:29;94882.22;;;27.76;54.32
7834;BME280;3962;42.696;23.354;2023-07-20T07:10:55;94875.50;;;27.89;53.11
7834;BME280;3962;42.696;23.354;2023-07-20T07:13:22;94874.16;;;27.65;53.55
7834;BME280;3962;42.696;23.354;2023-07-20T07:15:51;94883.69;;;27.57;54.24
7834;BME280;3962;42.696;23.354;2023-07-20T07:18:18;94906.50;;;27.42;54.43
7834;BME280;3962;42.696;23.354;2023-07-20T07:20:52;94908.09;;;27.69;54.19
7834;BME280;3962;42.696;23.354;2023-07-20T07:23:19;94915.59;;;28.56;51.66
7834;BME280;3962;42.696;23.354;2023-07-20T07:25:45;94925.59;;;28.92;50.12
7834;BME280;3962;42.696;23.354;2023-07-20T07:28:13;94923.53;;;29.19;49.74
7834;BME280;3962;42.696;23.354;2023-07-20T07:30:40;94933.78;;;30.09;47.71
7834;BME280;3962;42.696;23.354;2023-07-20T07:33:08;94924.69;;;30.43;47.06
7834;BME280;3962;42.696;23.354;2023-07-20T07:35:35;94921.63;;;30.60;45.82
7834;BME280;3962;42.696;23.354;2023-07-20T07:38:02;94918.00;;;30.84;45.70
7834;BME280;3962;42.696;23.354;2023-07-20T07:40:29;94911.75;;;30.69;44.81
7834;BME280;3962;42.696;23.354;2023-07-20T07:42:55;94902.59;;;31.42;44.58
7834;BME280;3962;42.696;23.354;2023-07-20T07:45:22;94918.03;;;31.81;42.95
7834;BME280;3962;42.696;23.354;2023-07-20T07:47:49;94913.44;;;31.23;43.87
7834;BME280;3962;42.696;23.354;2023-07-20T07:50:17;94909.41;;;31.01;44.34
7834;BME280;3962;42.696;23.354;2023-07-20T07:52:44;94867.47;;;31.34;44.21
7834;BME280;3962;42.696;23.354;2023-07-20T07:55:12;94863.28;;;31.80;44.19
7834;BME280;3962;42.696;23.354;2023-07-20T07:57:39;94878.03;;;32.27;43.41
7834;BME280;3962;42.696;23.354;2023-07-20T08:00:06;94889.59;;;32.24;42.59
7834;BME280;3962;42.696;23.354;2023-07-20T08:02:40;94887.50;;;32.11;42.22
7834;BME280;3962;42.696;23.354;2023-07-20T08:05:07;94881.66;;;32.46;42.01
7834;BME280;3962;42.696;23.354;2023-07-20T08:07:35;94898.19;;;32.22;42.55
7834;BME280;3962;42.696;23.354;2023-07-20T08:10:03;94907.13;;;31.28;44.29
7834;BME280;3962;42.696;23.354;2023-07-20T08:12:30;94923.16;;;31.01;45.66
7834;BME280;3962;42.696;23.354;2023-07-20T08:14:57;94922.28;;;31.05;45.31
7834;BME280;3962;42.696;23.354;2023-07-20T08:17:23;94932.19;;;31.16;45.95
7834;BME280;3962;42.696;23.354;2023-07-20T08:19:51;94922.25;;;31.15;46.51
7834;BME280;3962;42.696;23.354;2023-07-20T08:22:17;94907.81;;;30.90;47.32
7834;BME280;3962;42.696;23.354;2023-07-20T08:24:46;94925.16;;;30.85;48.37
7834;BME280;3962;42.696;23.354;2023-07-20T08:27:12;94921.94;;;30.43;48.28
7834;BME280;3962;42.696;23.354;2023-07-20T08:29:39;94906.59;;;30.27;48.29
7834;BME280;3962;42.696;23.354;2023-07-20T08:32:08;94917.81;;;30.46;47.51
7834;BME280;3962;42.696;23.354;2023-07-20T08:34:36;94918.34;;;30.58;46.46
7834;BME280;3962;42.696;23.354;2023-07-20T08:37:03;94914.03;;;29.97;47.31
7834;BME280;3962;42.696;23.354;2023-07-20T08:39:33;94916.22;;;29.90;47.15
7834;BME280;3962;42.696;23.354;2023-07-20T08:42:01;94911.28;;;29.82;46.77
7834;BME280;3962;42.696;23.354;2023-07-20T08:44:34;94901.34;;;29.36;46.16
7834;BME280;3962;42.696;23.354;2023-07-20T08:47:06;94903.00;;;29.42;44.80
7834;BME280;3962;42.696;23.354;2023-07-20T08:49:34;94898.88;;;29.19;45.44
7834;BME280;3962;42.696;23.354;2023-07-20T08:52:01;94896.97;;;29.45;45.10
7834;BME280;3962;42.696;23.354;2023-07-20T08:54:31;94911.00;;;29.53;44.64
7834;BME280;3962;42.696;23.354;2023-07-20T08:57:11;94894.22;;;29.45;44.75
7834;BME280;3962;42.696;23.354;2023-07-20T08:59:40;94896.72;;;29.56;45.01
7834;BME280;3962;42.696;23.354;2023-07-20T09:02:07;94896.75;;;30.16;43.81
7834;BME280;3962;42.696;23.354;2023-07-20T09:04:38;94877.28;;;29.88;43.81
7834;BME280;3962;42.696;23.354;2023-07-20T09:07:06;94878.91;;;29.99;43.38
7834;BME280;3962;42.696;23.354;2023-07-20T09:09:33;94882.44;;;30.04;43.93
7834;BME280;3962;42.696;23.354;2023-07-20T09:12:13;94880.75;;;30.53;43.89
7834;BME280;3962;42.696;23.354;2023-07-20T09:14:42;94879.41;;;30.36;43.92
7834;BME280;3962;42.696;23.354;2023-07-20T09:17:13;94876.97;;;30.24;43.97
7834;BME280;3962;42.696;23.354;2023-07-20T09:19:46;94884.22;;;30.84;43.49
7834;BME280;3962;42.696;23.354;2023-07-20T09:22:12;94878.91;;;31.02;42.85
7834;BME280;3962;42.696;23.354;2023-07-20T09:24:40;94872.84;;;31.05;42.56
7834;BME280;3962;42.696;23.354;2023-07-20T09:27:09;94872.59;;;31.45;42.16
7834;BME280;3962;42.696;23.354;2023-07-20T09:29:47;94863.28;;;30.93;42.90
7834;BME280;3962;42.696;23.354;2023-07-20T09:32:21;94874.41;;;30.58;43.52
7834;BME280;3962;42.696;23.354;2023-07-20T09:34:51;94870.22;;;30.80;43.65
7834;BME280;3962;42.696;23.354;2023-07-20T09:37:20;94869.84;;;31.45;42.86
7834;BME280;3962;42.696;23.354;2023-07-20T09:39:48;94869.84;;;31.50;41.18
7834;BME280;3962;42.696;23.354;2023-07-20T09:42:20;94863.06;;;31.38;42.12
7834;BME280;3962;42.696;23.354;2023-07-20T09:44:48;94859.09;;;31.49;42.17
7834;BME280;3962;42.696;23.354;2023-07-20T09:47:21;94853.78;;;31.29;42.51
7834;BME280;3962;42.696;23.354;2023-07-20T09:49:48;94856.44;;;31.39;41.83
7834;BME280;3962;42.696;23.354;2023-07-20T09:52:15;94861.56;;;31.55;40.53
7834;BME280;3962;42.696;23.354;2023-07-20T09:54:46;94840.25;;;31.66;39.96
7834;BME280;3962;42.696;23.354;2023-07-20T09:57:13;94834.81;;;31.94;39.51
7834;BME280;3962;42.696;23.354;2023-07-20T09:59:42;94807.78;;;31.73;40.33
7834;BME280;3962;42.696;23.354;2023-07-20T10:02:15;94823.22;;;31.30;40.31
7834;BME280;3962;42.696;23.354;2023-07-20T10:04:46;94830.81;;;31.05;41.22
7834;BME280;3962;42.696;23.354;2023-07-20T10:07:14;94832.66;;;30.61;40.33
7834;BME280;3962;42.696;23.354;2023-07-20T10:09:44;94826.31;;;30.70;39.97
7834;BME280;3962;42.696;23.354;2023-07-20T10:12:12;94819.44;;;30.73;40.55
7834;BME280;3962;42.696;23.354;2023-07-20T10:14:44;94828.38;;;30.25;40.87
7834;BME280;3962;42.696;23.354;2023-07-20T10:17:17;94830.88;;;30.16;41.52
7834;BME280;3962;42.696;23.354;2023-07-20T10:19:47;94836.59;;;30.25;41.85
7834;BME280;3962;42.696;23.354;2023-07-20T10:22:16;94833.88;;;30.25;42.50
7834;BME280;3962;42.696;23.354;2023-07-20T10:24:46;94842.31;;;30.48;41.90
7834;BME280;3962;42.696;23.354;2023-07-20T10:27:13;94840.44;;;30.29;41.84
7834;BME280;3962;42.696;23.354;2023-07-20T10:29:41;94852.03;;;29.91;42.61
7834;BME280;3962;42.696;23.354;2023-07-20T10:32:10;94833.69;;;29.66;43.30
7834;BME280;3962;42.696;23.354;2023-07-20T10:34:37;94808.44;;;29.69;43.96
7834;BME280;3962;42.696;23.354;2023-07-20T10:37:04;94802.72;;;29.56;44.12
7834;BME280;3962;42.696;23.354;2023-07-20T10:39:32;94829.00;;;29.67;43.97
7834;BME280;3962;42.696;23.354;2023-07-20T10:42:00;94819.97;;;29.76;43.08
7834;BME280;3962;42.696;23.354;2023-07-20T10:44:30;94838.34;;;29.86;42.40
7834;BME280;3962;42.696;23.354;2023-07-20T10:47:00;94833.69;;;29.51;42.21
7834;BME280;3962;42.696;23.354;2023-07-20T10:49:32;94778.03;;;29.51;42.07
7834;BME280;3962;42.696;23.354;2023-07-20T10:52:00;94764.00;;;29.72;41.17
7834;BME280;3962;42.696;23.354;2023-07-20T10:54:34;94791.41;;;29.92;41.19
7834;BME280;3962;42.696;23.354;2023-07-20T10:57:22;94800.38;;;30.23;41.59
7834;BME280;3962;42.696;23.354;2023-07-20T10:59:49;94809.72;;;30.17;40.16
7834;BME280;3962;42.696;23.354;2023-07-20T11:02:18;94801.72;;;30.35;39.74
7834;BME280;3962;42.696;23.354;2023-07-20T11:04:47;94789.50;;;30.76;39.24
7834;BME280;3962;42.696;23.354;2023-07-20T11:07:21;94773.63;;;31.07;38.98
7834;BME280;3962;42.696;23.354;2023-07-20T11:10:13;94763.91;;;31.24;39.46
7834;BME280;3962;42.696;23.354;2023-07-20T11:12:41;94759.69;;;31.65;38.91
7834;BME280;3962;42.696;23.354;2023-07-20T11:15:08;94768.34;;;32.05;39.36
7834;BME280;3962;42.696;23.354;2023-07-20T11:17:35;94765.47;;;31.64;39.30
7834;BME280;3962;42.696;23.354;2023-07-20T11:20:05;94774.22;;;31.37;39.84
7834;BME280;3962;42.696;23.354;2023-07-20T11:22:33;94771.53;;;31.32;40.04
7834;BME280;3962;42.696;23.354;2023-07-20T11:25:00;94764.91;;;30.95;40.59
7834;BME280;3962;42.696;23.354;2023-07-20T11:27:27;94751.84;;;31.20;40.63
7834;BME280;3962;42.696;23.354;2023-07-20T11:29:54;94751.81;;;31.25;40.73
7834;BME280;3962;42.696;23.354;2023-07-20T11:32:21;94752.25;;;31.66;40.24
7834;BME280;3962;42.696;23.354;2023-07-20T11:34:48;94755.97;;;31.51;40.50
7834;BME280;3962;42.696;23.354;2023-07-20T11:37:17;94746.66;;;31.47;40.34
7834;BME280;3962;42.696;23.354;2023-07-20T11:39:44;94739.75;;;31.50;40.46
7834;BME280;3962;42.696;23.354;2023-07-20T11:42:11;94735.06;;;31.84;39.50
7834;BME280;3962;42.696;23.354;2023-07-20T11:44:38;94741.41;;;32.31;39.72
7834;BME280;3962;42.696;23.354;2023-07-20T11:47:07;94733.81;;;32.41;39.40
7834;BME280;3962;42.696;23.354;2023-07-20T11:49:35;94741.50;;;32.44;38.74
7834;BME280;3962;42.696;23.354;2023-07-20T11:52:03;94735.25;;;32.81;38.56
7834;BME280;3962;42.696;23.354;2023-07-20T11:54:32;94729.13;;;32.84;38.07
7834;BME280;3962;42.696;23.354;2023-07-20T11:57:00;94730.69;;;33.08;37.30
7834;BME280;3962;42.696;23.354;2023-07-20T11:59:27;94729.47;;;33.14;36.91
7834;BME280;3962;42.696;23.354;2023-07-20T12:01:54;94717.44;;;33.10;37.12
7834;BME280;3962;42.696;23.354;2023-07-20T12:04:22;94724.81;;;32.78;36.88
7834;BME280;3962;42.696;23.354;2023-07-20T12:06:49;94712.09;;;33.00;37.01
7834;BME280;3962;42.696;23.354;2023-07-20T12:09:16;94703.81;;;33.00;35.64
7834;BME280;3962;42.696;23.354;2023-07-20T12:11:45;94710.44;;;32.81;36.29
7834;BME280;3962;42.696;23.354;2023-07-20T12:14:11;94703.22;;;32.85;36.99
7834;BME280;3962;42.696;23.354;2023-07-20T12:16:38;94715.44;;;33.48;36.00
7834;BME280;3962;42.696;23.354;2023-07-20T12:19:09;94706.75;;;33.22;36.04
7834;BME280;3962;42.696;23.354;2023-07-20T12:21:37;94705.72;;;33.37;36.32
7834;BME280;3962;42.696;23.354;2023-07-20T12:24:06;94709.06;;;33.34;36.98
7834;BME280;3962;42.696;23.354;2023-07-20T12:26:34;94702.56;;;33.75;36.11
7834;BME280;3962;42.696;23.354;2023-07-20T12:29:03;94704.19;;;33.76;35.11
7834;BME280;3962;42.696;23.354;2023-07-20T12:31:36;94696.31;;;33.83;35.39
7834;BME280;3962;42.696;23.354;2023-07-20T12:34:05;94697.50;;;33.64;35.73
7834;BME280;3962;42.696;23.354;2023-07-20T12:36:33;94706.19;;;33.71;36.36
7834;BME280;3962;42.696;23.354;2023-07-20T12:39:01;94692.53;;;33.47;35.98
7834;BME280;3962;42.696;23.354;2023-07-20T12:41:29;94689.53;;;33.30;35.68
7834;BME280;3962;42.696;23.354;2023-07-20T12:43:56;94677.28;;;33.04;35.91
7834;BME280;3962;42.696;23.354;2023-07-20T12:46:25;94678.91;;;33.05;35.78
7834;BME280;3962;42.696;23.354;2023-07-20T12:48:54;94679.34;;;33.12;35.31
7834;BME280;3962;42.696;23.354;2023-07-20T12:51:21;94684.63;;;33.09;35.41
7834;BME280;3962;42.696;23.354;2023-07-20T12:53:47;94682.31;;;33.16;34.12
7834;BME280;3962;42.696;23.354;2023-07-20T12:56:14;94682.53;;;33.38;34.05
7834;BME280;3962;42.696;23.354;2023-07-20T12:58:41;94681.19;;;33.17;34.82
7834;BME280;3962;42.696;23.354;2023-07-20T13:01:08;94680.91;;;33.50;35.25
7834;BME280;3962;42.696;23.354;2023-07-20T13:03:36;94691.97;;;33.64;34.96
7834;BME280;3962;42.696;23.354;2023-07-20T13:06:02;94666.22;;;33.68;33.92
7834;BME280;3962;42.696;23.354;2023-07-20T13:08:29;94676.97;;;33.70;34.39
7834;BME280;3962;42.696;23.354;2023-07-20T13:10:56;94672.00;;;33.85;34.82
7834;BME280;3962;42.696;23.354;2023-07-20T13:13:23;94677.63;;;33.80;34.21
7834;BME280;3962;42.696;23.354;2023-07-20T13:15:50;94676.19;;;33.51;34.12